Time;durP1;ratioP1;P1;durP2;ratioP2;P2;SDS_P1;SDS_P2;PMS_P1;PMS_P2;Temp;Humidity;BMP_temperature;BMP_pressure;BME280_temperature;BME280_humidity;BME280_pressure;Samples;Min_cycle;Max_cycle;Signal;HPM_P1;HPM_P2
2021/11/07 00:02:38;;;;;;;19.35;10.15;;;1.80;66.40;;;;;;5093158;28;20193;-67
2021/11/07 00:05:20;;;;;;;17.10;9.48;;;1.60;65.90;;;;;;5080777;28;20285;-65
2021/11/07 00:08:01;;;;;;;12.35;9.80;;;1.60;66.40;;;;;;5073262;28;20281;-65
2021/11/07 00:10:41;;;;;;;13.50;9.43;;;1.60;66.80;;;;;;5087286;28;20181;-65
2021/11/07 00:13:18;;;;;;;14.25;8.70;;;1.60;67.20;;;;;;5093347;28;20251;-65
2021/11/07 00:15:50;;;;;;;23.52;11.02;;;1.60;68.00;;;;;;5076239;28;20203;-65
2021/11/07 00:18:26;;;;;;;18.48;11.43;;;1.70;69.60;;;;;;5072973;28;20289;-65
2021/11/07 00:21:06;;;;;;;28.63;12.35;;;1.70;69.90;;;;;;5089595;28;20226;-65
2021/11/07 00:23:56;;;;;;;28.52;10.18;;;1.60;71.30;;;;;;5092922;28;20189;-65
2021/11/07 00:26:30;;;;;;;19.50;10.35;;;1.60;71.80;;;;;;5052690;28;20190;-65
2021/11/07 00:29:06;;;;;;;20.88;10.95;;;1.60;70.90;;;;;;5052528;28;20194;-66
2021/11/07 00:31:44;;;;;;;26.35;10.43;;;1.60;71.40;;;;;;5052366;28;20281;-65
2021/11/07 00:37:09;;;;;;;17.25;8.88;;;1.50;71.90;;;;;;5092750;28;20281;-65
2021/11/07 00:39:43;;;;;;;15.32;8.55;;;1.60;71.60;;;;;;5088192;28;20217;-65
2021/11/07 00:42:22;;;;;;;13.05;7.18;;;1.60;72.10;;;;;;5072453;28;20209;-65
2021/11/07 00:44:58;;;;;;;14.07;9.10;;;1.60;72.80;;;;;;5077505;28;20228;-65
2021/11/07 00:47:38;;;;;;;21.08;8.63;;;1.70;73.10;;;;;;5090513;28;20188;-65
2021/11/07 00:50:23;;;;;;;20.98;10.35;;;1.70;72.30;;;;;;5072362;28;20212;-65
2021/11/07 00:53:00;;;;;;;12.23;9.00;;;1.60;72.30;;;;;;5076215;28;20212;-65
2021/11/07 00:55:34;;;;;;;23.10;9.10;;;1.60;72.40;;;;;;5092488;28;20644;-65
2021/11/07 00:58:07;;;;;;;16.38;7.72;;;1.60;72.70;;;;;;5086478;28;20547;-65
2021/11/07 01:00:48;;;;;;;15.38;9.93;;;1.70;72.50;;;;;;5071955;28;20226;-65
2021/11/07 01:03:20;;;;;;;12.27;7.90;;;1.70;72.60;;;;;;5090930;28;20213;-65
2021/11/07 01:05:47;;;;;;;18.10;10.15;;;1.70;73.20;;;;;;5092334;28;20196;-66
2021/11/07 01:08:16;;;;;;;19.38;9.50;;;1.70;73.20;;;;;;5073801;28;20186;-65
2021/11/07 01:10:50;;;;;;;11.75;8.20;;;1.80;73.60;;;;;;5071817;28;20558;-65
2021/11/07 01:13:22;;;;;;;19.38;10.48;;;1.80;74.40;;;;;;5089815;28;20196;-65
2021/11/07 01:15:53;;;;;;;23.58;10.73;;;1.90;75.10;;;;;;5092427;28;20201;-65
2021/11/07 01:18:21;;;;;;;16.90;10.55;;;1.80;75.30;;;;;;5073651;28;20183;-65
2021/11/07 01:21:00;;;;;;;23.52;8.60;;;1.80;76.30;;;;;;5072053;28;20259;-64
2021/11/07 01:23:36;;;;;;;18.73;9.95;;;1.80;77.00;;;;;;5089935;28;20260;-65
2021/11/07 01:26:08;;;;;;;14.93;8.68;;;1.80;77.10;;;;;;5075931;28;20190;-65
2021/11/07 01:28:48;;;;;;;17.50;8.60;;;1.80;76.90;;;;;;5071734;28;20702;-65
2021/11/07 01:31:16;;;;;;;17.13;8.20;;;1.80;77.60;;;;;;5083871;28;20239;-66
2021/11/07 01:33:45;;;;;;;18.70;8.65;;;1.70;77.80;;;;;;5071942;28;20281;-65
2021/11/07 01:36:27;;;;;;;20.00;7.82;;;1.70;78.40;;;;;;5071786;28;20189;-65
2021/11/07 01:39:05;;;;;;;23.30;11.63;;;1.70;79.30;;;;;;5088335;28;20198;-65
2021/11/07 01:41:47;;;;;;;25.48;12.43;;;1.60;79.20;;;;;;5096023;28;20211;-65
2021/11/07 01:44:16;;;;;;;28.92;12.02;;;1.60;78.30;;;;;;5093643;28;20189;-66
2021/11/07 01:47:00;;;;;;;19.60;11.20;;;1.70;76.80;;;;;;5087923;28;20186;-65
2021/11/07 01:49:36;;;;;;;15.45;9.07;;;1.60;77.00;;;;;;5075676;28;20730;-65
2021/11/07 01:52:24;;;;;;;18.60;8.85;;;1.70;76.00;;;;;;5084569;28;20624;-65
2021/11/07 01:55:05;;;;;;;15.95;8.65;;;1.50;76.20;;;;;;5096221;28;20189;-66
2021/11/07 01:57:41;;;;;;;16.25;9.20;;;1.50;76.20;;;;;;5082606;28;20190;-66
2021/11/07 02:00:18;;;;;;;14.70;10.15;;;1.50;76.50;;;;;;5075041;28;20217;-65
2021/11/07 02:02:54;;;;;;;16.17;9.02;;;1.50;77.20;;;;;;5088863;28;20269;-65
2021/11/07 02:05:22;;;;;;;13.10;7.93;;;1.50;77.80;;;;;;5095702;28;20193;-65
2021/11/07 02:07:55;;;;;;;13.90;8.52;;;1.50;77.70;;;;;;5080706;28;20239;-65
2021/11/07 02:10:30;;;;;;;17.90;8.75;;;1.50;76.00;;;;;;5075380;28;20198;-65
2021/11/07 02:13:00;;;;;;;17.88;9.60;;;1.60;75.10;;;;;;5089814;28;20182;-66
2021/11/07 02:15:30;;;;;;;13.13;7.70;;;1.50;74.90;;;;;;5093508;28;20189;-65
2021/11/07 02:18:05;;;;;;;17.60;9.02;;;1.50;75.30;;;;;;5095546;28;20200;-65
2021/11/07 02:20:37;;;;;;;10.82;7.53;;;1.40;74.50;;;;;;5085551;28;20224;-66
2021/11/07 02:23:15;;;;;;;13.50;8.45;;;1.30;74.70;;;;;;5076155;28;20283;-65
2021/11/07 02:25:50;;;;;;;15.57;7.30;;;1.30;74.30;;;;;;5094755;28;20250;-65
2021/11/07 02:28:26;;;;;;;10.95;7.18;;;1.20;74.50;;;;;;5080179;28;20182;-65
2021/11/07 02:30:58;;;;;;;15.25;7.20;;;1.20;74.40;;;;;;5074906;28;20190;-65
2021/11/07 02:33:33;;;;;;;8.80;6.53;;;1.10;73.80;;;;;;5089217;28;20268;-66
2021/11/07 02:36:22;;;;;;;11.20;7.57;;;1.10;74.20;;;;;;5095129;28;20201;-65
2021/11/07 02:38:53;;;;;;;9.85;6.43;;;1.10;73.80;;;;;;5076678;28;20255;-65
2021/11/07 02:41:27;;;;;;;11.77;7.05;;;1.00;73.80;;;;;;5074807;28;20214;-65
2021/11/07 02:43:59;;;;;;;9.90;6.60;;;1.00;75.00;;;;;;5092431;28;20181;-65
2021/11/07 02:46:30;;;;;;;12.80;7.15;;;1.00;75.40;;;;;;5094943;28;20190;-65
2021/11/07 02:49:00;;;;;;;12.80;8.57;;;1.00;74.90;;;;;;5075671;28;20244;-64
2021/11/07 02:51:38;;;;;;;12.93;7.80;;;1.00;74.70;;;;;;5074993;28;20633;-65
2021/11/07 02:54:09;;;;;;;14.65;8.20;;;1.00;74.30;;;;;;5074446;28;20198;-65
2021/11/07 02:56:37;;;;;;;14.43;8.07;;;1.00;74.30;;;;;;5079109;28;20182;-65
2021/11/07 02:59:08;;;;;;;9.60;7.38;;;1.00;74.40;;;;;;5092208;28;20644;-65
2021/11/07 03:01:36;;;;;;;14.60;9.00;;;1.00;74.40;;;;;;5074236;28;20268;-66
2021/11/07 03:04:09;;;;;;;13.25;8.52;;;1.00;74.10;;;;;;5075274;28;20190;-66
2021/11/07 03:06:44;;;;;;;12.05;7.60;;;1.10;73.60;;;;;;5074327;28;20281;-64
2021/11/07 03:09:21;;;;;;;11.35;8.63;;;1.10;73.40;;;;;;5076008;28;20217;-64
2021/11/07 03:11:57;;;;;;;24.08;8.75;;;1.10;73.50;;;;;;5094460;28;20196;-64
2021/11/07 03:14:43;;;;;;;14.88;8.52;;;1.00;73.00;;;;;;5090624;28;20235;-65
2021/11/07 03:17:19;;;;;;;14.20;7.78;;;1.00;72.40;;;;;;5074072;28;20664;-65
2021/11/07 03:19:54;;;;;;;11.65;7.30;;;1.00;72.80;;;;;;5080151;28;20527;-64
2021/11/07 03:22:30;;;;;;;12.00;7.40;;;0.90;72.50;;;;;;5094241;28;20193;-64
2021/11/07 03:25:04;;;;;;;14.80;8.77;;;0.90;71.40;;;;;;5086749;28;20182;-64
2021/11/07 03:27:44;;;;;;;16.02;8.07;;;0.70;70.90;;;;;;5073861;28;20196;-64
2021/11/07 03:30:26;;;;;;;12.32;9.38;;;0.70;71.30;;;;;;5090487;28;20194;-66
2021/11/07 03:33:12;;;;;;;16.10;9.18;;;0.50;71.60;;;;;;5093550;28;20225;-65
2021/11/07 03:35:48;;;;;;;14.63;7.78;;;0.40;71.20;;;;;;5053839;28;20191;-65
2021/11/07 03:38:21;;;;;;;12.05;7.40;;;0.30;71.20;;;;;;5054050;28;20260;-66
2021/11/07 03:40:51;;;;;;;9.13;6.38;;;0.20;70.80;;;;;;5053788;28;20254;-65
2021/11/07 03:43:32;;;;;;;9.27;6.68;;;0.00;71.80;;;;;;5054149;28;20672;-65
2021/11/07 03:46:15;;;;;;;10.68;6.05;;;-0.10;72.10;;;;;;5093970;28;20231;-65
2021/11/07 03:48:45;;;;;;;9.50;5.20;;;-0.10;73.00;;;;;;5077402;28;20267;-65
2021/11/07 03:51:18;;;;;;;7.63;5.60;;;-0.10;73.90;;;;;;5073638;28;20189;-65
2021/11/07 03:53:56;;;;;;;9.10;6.30;;;0.00;74.10;;;;;;5088810;28;20207;-65
2021/11/07 03:56:38;;;;;;;8.77;6.38;;;0.00;74.00;;;;;;5093688;28;20197;-64
2021/11/07 03:59:11;;;;;;;9.20;6.65;;;0.10;73.70;;;;;;5075288;28;20285;-64
2021/11/07 04:01:43;;;;;;;9.77;6.50;;;0.10;73.10;;;;;;5072706;28;20222;-65
2021/11/07 04:04:11;;;;;;;11.10;7.35;;;0.10;72.80;;;;;;5090766;28;20201;-65
2021/11/07 04:06:50;;;;;;;7.25;5.20;;;0.10;72.60;;;;;;5093299;28;20548;-65
2021/11/07 04:09:23;;;;;;;8.27;5.35;;;0.10;71.50;;;;;;5074495;28;20186;-64
2021/11/07 04:11:55;;;;;;;7.70;5.90;;;0.10;71.60;;;;;;5072964;28;20195;-64
2021/11/07 04:14:33;;;;;;;9.30;6.88;;;0.10;71.30;;;;;;5073689;28;20194;-65
2021/11/07 04:17:07;;;;;;;9.85;6.60;;;0.10;70.70;;;;;;5072477;28;20232;-66
2021/11/07 04:19:43;;;;;;;8.23;6.22;;;0.00;69.70;;;;;;5052874;28;20193;-67
2021/11/07 04:22:12;;;;;;;6.18;5.45;;;0.00;69.10;;;;;;5053828;28;20218;-66
2021/11/07 04:24:45;;;;;;;9.13;6.28;;;0.00;69.60;;;;;;5073016;28;20190;-65
2021/11/07 04:27:26;;;;;;;8.63;5.10;;;0.00;69.90;;;;;;5085829;28;20653;-65
2021/11/07 04:29:54;;;;;;;7.88;6.22;;;0.00;70.30;;;;;;5092804;28;20190;-66
2021/11/07 04:32:29;;;;;;;10.05;5.78;;;0.00;71.30;;;;;;5078455;28;20228;-65
2021/11/07 04:35:02;;;;;;;16.75;8.13;;;0.00;70.60;;;;;;5091789;28;20189;-65
2021/11/07 04:37:32;;;;;;;7.40;5.90;;;0.00;70.60;;;;;;5077841;28;20621;-65
2021/11/07 04:40:14;;;;;;;10.20;6.53;;;0.00;71.50;;;;;;5072402;28;20193;-66
2021/11/07 04:42:50;;;;;;;7.50;5.57;;;0.00;71.50;;;;;;5086808;28;20228;-65
2021/11/07 04:45:20;;;;;;;8.13;6.22;;;0.00;71.10;;;;;;5072399;28;20280;-64
2021/11/07 04:47:51;;;;;;;9.90;7.03;;;0.00;70.70;;;;;;5087948;28;20229;-65
2021/11/07 04:50:23;;;;;;;8.45;6.20;;;0.00;70.40;;;;;;5092745;28;20606;-65
2021/11/07 04:53:02;;;;;;;9.18;6.32;;;0.00;69.00;;;;;;5078077;28;20200;-65
2021/11/07 04:55:38;;;;;;;7.65;5.50;;;0.00;69.40;;;;;;5092528;28;20185;-65
2021/11/07 04:58:12;;;;;;;10.45;6.20;;;0.00;69.80;;;;;;5074560;28;20190;-65
2021/11/07 05:00:52;;;;;;;7.10;5.07;;;0.00;69.70;;;;;;5071846;28;20210;-65
2021/11/07 05:03:28;;;;;;;8.95;5.63;;;0.00;69.40;;;;;;5085084;28;20585;-65
2021/11/07 05:06:01;;;;;;;9.68;5.32;;;0.00;68.10;;;;;;5072126;28;20192;-65
2021/11/07 05:08:40;;;;;;;8.00;4.82;;;-0.20;66.50;;;;;;5091101;28;20216;-65
2021/11/07 05:11:11;;;;;;;8.90;6.13;;;-0.30;66.80;;;;;;5092297;28;20647;-65
2021/11/07 05:13:45;;;;;;;10.77;6.55;;;-0.40;66.10;;;;;;5078427;28;20232;-64
2021/11/07 05:16:13;;;;;;;9.25;5.80;;;-0.40;66.40;;;;;;5092025;28;20196;-64
2021/11/07 05:18:45;;;;;;;7.13;5.35;;;-0.40;66.90;;;;;;5072309;28;20229;-65
2021/11/07 05:21:17;;;;;;;7.65;5.25;;;-0.50;67.10;;;;;;5071956;28;20222;-65
2021/11/07 05:23:45;;;;;;;7.25;4.95;;;-0.50;67.80;;;;;;5083290;28;20182;-65
2021/11/07 05:26:25;;;;;;;7.28;5.65;;;-0.50;68.10;;;;;;5071792;28;20645;-65
2021/11/07 05:28:55;;;;;;;8.85;5.65;;;-0.50;68.40;;;;;;5051815;28;20232;-65
2021/11/07 05:31:23;;;;;;;8.13;5.80;;;-0.60;69.20;;;;;;5051646;28;20197;-64
2021/11/07 05:33:56;;;;;;;8.68;5.85;;;-0.50;69.50;;;;;;5083777;28;20183;-64
2021/11/07 05:36:41;;;;;;;11.35;6.68;;;-0.50;70.20;;;;;;5071623;28;20237;-66
2021/11/07 05:39:15;;;;;;;11.45;6.80;;;-0.50;70.40;;;;;;5071644;28;20182;-65
2021/11/07 05:41:53;;;;;;;6.90;4.82;;;-0.40;70.20;;;;;;5051389;28;20308;-65
2021/11/07 05:44:26;;;;;;;7.70;4.70;;;-0.50;69.40;;;;;;5083396;28;20652;-66
2021/11/07 05:47:01;;;;;;;7.47;5.05;;;-0.60;68.90;;;;;;5092080;28;20212;-65
2021/11/07 05:49:33;;;;;;;7.40;5.53;;;-0.50;69.40;;;;;;5074607;28;20765;-66
2021/11/07 05:52:05;;;;;;;8.45;5.47;;;-0.50;69.60;;;;;;5071547;28;20279;-65
2021/11/07 05:54:33;;;;;;;9.43;5.80;;;-0.50;69.60;;;;;;5088413;28;20746;-65
2021/11/07 05:57:03;;;;;;;7.85;6.00;;;-0.50;68.90;;;;;;5091591;28;20190;-65
2021/11/07 05:59:46;;;;;;;7.38;5.50;;;-0.50;68.30;;;;;;5074928;28;20217;-65
2021/11/07 06:02:13;;;;;;;9.48;6.55;;;-0.40;68.40;;;;;;5071509;28;20225;-65
2021/11/07 06:04:47;;;;;;;10.93;6.30;;;-0.40;67.90;;;;;;5089068;28;20194;-65
2021/11/07 06:07:20;;;;;;;7.38;5.05;;;-0.50;67.40;;;;;;5091618;28;20201;-65
2021/11/07 06:09:47;;;;;;;12.77;5.80;;;-0.40;67.00;;;;;;5072799;28;20194;-65
2021/11/07 06:12:21;;;;;;;6.85;4.68;;;-0.50;67.40;;;;;;5071378;28;20190;-64
2021/11/07 06:14:57;;;;;;;7.10;5.32;;;-0.40;68.60;;;;;;5089295;28;20195;-65
2021/11/07 06:17:29;;;;;;;10.30;6.70;;;-0.40;68.60;;;;;;5091816;28;20577;-65
2021/11/07 06:20:01;;;;;;;12.75;7.55;;;-0.50;69.20;;;;;;5071563;28;20819;-66
2021/11/07 06:22:31;;;;;;;16.70;10.73;;;-0.50;69.10;;;;;;5072174;28;20214;-65
2021/11/07 06:25:05;;;;;;;10.70;7.93;;;-0.60;68.10;;;;;;5071699;28;20190;-64
2021/11/07 06:27:37;;;;;;;18.25;6.40;;;-0.70;67.80;;;;;;5076106;28;20281;-65
2021/11/07 06:30:20;;;;;;;11.23;8.88;;;-0.80;68.40;;;;;;5094870;28;20208;-65
2021/11/07 06:32:55;;;;;;;8.90;7.10;;;-0.90;69.60;;;;;;5090186;28;20189;-65
2021/11/07 06:35:29;;;;;;;8.15;6.03;;;-0.90;70.90;;;;;;5077927;28;20314;-65
2021/11/07 06:38:05;;;;;;;6.30;5.05;;;-0.80;72.40;;;;;;5090550;28;20193;-64
2021/11/07 06:40:39;;;;;;;9.18;6.50;;;-0.70;73.60;;;;;;5075827;28;20632;-65
2021/11/07 06:43:08;;;;;;;7.43;4.90;;;-0.40;73.80;;;;;;5074967;28;20611;-65
2021/11/07 06:45:36;;;;;;;9.88;6.78;;;-0.20;74.40;;;;;;5075425;28;20272;-65
2021/11/07 06:48:06;;;;;;;8.77;5.97;;;0.00;74.30;;;;;;5079350;28;20219;-65
2021/11/07 06:50:35;;;;;;;8.82;6.40;;;0.20;73.70;;;;;;5091579;28;20271;-65
2021/11/07 06:53:05;;;;;;;7.68;5.38;;;0.50;73.90;;;;;;5074674;28;20206;-65
2021/11/07 06:55:32;;;;;;;8.57;6.57;;;0.90;73.80;;;;;;5076177;28;20202;-65
2021/11/07 06:58:00;;;;;;;8.77;6.45;;;1.30;74.00;;;;;;5090258;28;20190;-65
2021/11/07 07:00:44;;;;;;;7.65;5.00;;;1.80;73.60;;;;;;5075257;28;20601;-65
2021/11/07 07:03:13;;;;;;;7.32;4.50;;;2.30;72.30;;;;;;5094784;28;20215;-65
2021/11/07 07:05:41;;;;;;;6.97;5.60;;;2.70;70.80;;;;;;5092665;28;20224;-66
2021/11/07 07:08:16;;;;;;;7.45;5.50;;;3.20;69.40;;;;;;5089742;28;20190;-66
2021/11/07 07:10:54;;;;;;;16.88;14.88;;;3.50;65.60;;;;;;5075882;28;20651;-66
2021/11/07 07:13:28;;;;;;;8.13;6.88;;;3.90;61.70;;;;;;5094955;28;20193;-66
2021/11/07 07:16:15;;;;;;;8.23;5.85;;;4.10;62.10;;;;;;5091173;28;20209;-66
2021/11/07 07:18:53;;;;;;;6.18;5.30;;;4.40;60.30;;;;;;5083713;28;20606;-66
2021/11/07 07:21:34;;;;;;;11.45;8.32;;;4.70;61.00;;;;;;5088395;28;20229;-66
2021/11/07 07:26:59;;;;;;;7.18;5.43;;;5.30;57.70;;;;;;5074552;28;20279;-65
2021/11/07 07:32:43;;;;;;;8.30;5.40;;;5.90;56.60;;;;;;5074456;28;20563;-66
2021/11/07 07:35:12;;;;;;;6.20;4.55;;;6.10;55.40;;;;;;5071885;28;20641;-67
2021/11/07 07:37:42;;;;;;;6.40;4.50;;;6.20;54.70;;;;;;5073648;28;20213;-67
2021/11/07 07:40:12;;;;;;;7.05;5.40;;;6.40;55.10;;;;;;5072208;28;20194;-66
2021/11/07 07:42:39;;;;;;;7.72;5.93;;;6.90;54.10;;;;;;5075850;28;20210;-68
2021/11/07 07:45:07;;;;;;;8.52;5.95;;;7.20;53.00;;;;;;5072144;28;20248;-66
2021/11/07 07:47:36;;;;;;;8.07;6.13;;;7.50;52.20;;;;;;5076051;28;20479;-66
2021/11/07 07:50:05;;;;;;;8.30;5.45;;;7.60;51.10;;;;;;5071983;28;20320;-67
2021/11/07 07:52:33;;;;;;;7.70;6.13;;;7.90;51.20;;;;;;5067797;28;20281;-67
2021/11/07 07:55:00;;;;;;;6.60;5.95;;;8.00;50.60;;;;;;5069516;28;20202;-67
2021/11/07 07:57:41;;;;;;;8.65;7.30;;;8.40;49.50;;;;;;5071104;28;20587;-67
2021/11/07 08:00:12;;;;;;;7.80;5.38;;;8.70;48.40;;;;;;5069253;28;20248;-67
2021/11/07 08:02:41;;;;;;;9.20;6.78;;;9.10;49.10;;;;;;5074480;28;20267;-68
2021/11/07 08:05:10;;;;;;;7.47;5.22;;;9.50;48.30;;;;;;5072617;28;20200;-67
2021/11/07 08:07:39;;;;;;;8.32;5.88;;;10.00;46.20;;;;;;5070058;28;20649;-67
2021/11/07 08:10:11;;;;;;;14.68;6.55;;;10.30;43.60;;;;;;5070664;28;20190;-66
2021/11/07 08:12:39;;;;;;;8.52;6.25;;;10.50;44.20;;;;;;5070968;28;20209;-66
2021/11/07 08:15:13;;;;;;;8.20;6.15;;;10.80;43.00;;;;;;5070862;28;20208;-66
2021/11/07 08:17:43;;;;;;;6.40;5.28;;;11.10;42.20;;;;;;5070601;28;20269;-66
2021/11/07 08:20:16;;;;;;;6.25;5.38;;;11.40;42.30;;;;;;5074110;28;20613;-66
2021/11/07 08:22:43;;;;;;;5.40;3.92;;;11.30;39.80;;;;;;5070800;28;20627;-66
2021/11/07 08:25:14;;;;;;;5.18;3.90;;;10.80;39.90;;;;;;5070356;28;20244;-66
2021/11/07 08:27:46;;;;;;;9.32;4.82;;;10.60;41.20;;;;;;5070461;28;20281;-66
2021/11/07 08:30:22;;;;;;;6.88;4.40;;;10.80;42.10;;;;;;5070019;28;20194;-66
2021/11/07 08:32:51;;;;;;;6.20;4.05;;;11.40;42.30;;;;;;5070322;28;20221;-66
2021/11/07 08:35:27;;;;;;;5.55;3.47;;;12.20;41.00;;;;;;5070488;28;20550;-67
2021/11/07 08:37:58;;;;;;;6.25;5.05;;;12.60;40.00;;;;;;5069670;28;20182;-67
2021/11/07 08:40:30;;;;;;;5.63;4.10;;;13.00;38.90;;;;;;5069743;28;20555;-67
2021/11/07 08:43:12;;;;;;;4.18;2.58;;;13.60;37.60;;;;;;5070140;28;20307;-68
2021/11/07 08:54:34;;;;;;;3.30;2.00;;;14.60;33.40;;;;;;5044292;28;20220;-67
2021/11/07 09:03:10;;;;;;;2.97;1.77;;;17.20;30.70;;;;;;5061113;28;20229;-68
2021/11/07 09:06:00;;;;;;;2.67;1.50;;;18.40;29.00;;;;;;5070794;28;20436;-67
2021/11/07 09:08:27;;;;;;;3.03;2.53;;;19.70;27.50;;;;;;5070604;28;20441;-68
2021/11/07 09:10:59;;;;;;;3.07;2.13;;;20.70;26.00;;;;;;5071194;28;20792;-68
2021/11/07 09:13:29;;;;;;;2.80;1.67;;;21.60;23.80;;;;;;5071714;28;20439;-68
2021/11/07 09:15:58;;;;;;;4.70;2.47;;;21.80;23.00;;;;;;5069810;28;20972;-69
2021/11/07 09:18:56;;;;;;;3.10;1.97;;;21.80;22.80;;;;;;5067098;28;20428;-68
2021/11/07 09:21:32;;;;;;;3.50;2.30;;;22.70;22.60;;;;;;5071059;28;20475;-65
2021/11/07 09:24:08;;;;;;;5.73;4.50;;;23.60;21.90;;;;;;5069920;28;20475;-67
2021/11/07 09:26:45;;;;;;;2.90;2.03;;;24.40;20.90;;;;;;5070538;28;20542;-67
2021/11/07 09:29:30;;;;;;;3.53;1.90;;;25.20;20.30;;;;;;5070700;28;20474;-67
2021/11/07 09:32:11;;;;;;;4.00;2.70;;;25.60;20.10;;;;;;5070407;28;20437;-67
2021/11/07 09:34:44;;;;;;;2.50;2.10;;;26.10;18.40;;;;;;5069021;28;20938;-66
2021/11/07 09:37:22;;;;;;;3.70;1.47;;;26.30;18.20;;;;;;5068861;28;20436;-68
2021/11/07 09:39:53;;;;;;;4.00;1.93;;;26.80;18.40;;;;;;5069788;28;20515;-66
2021/11/07 09:45:15;;;;;;;2.20;1.07;;;28.10;16.00;;;;;;5070033;28;20492;-66
2021/11/07 09:47:46;;;;;;;2.00;1.13;;;28.40;15.60;;;;;;5069741;28;20495;-67
2021/11/07 09:50:14;;;;;;;1.83;1.03;;;28.20;15.80;;;;;;5064861;28;20475;-67
2021/11/07 09:52:47;;;;;;;3.20;1.10;;;28.10;15.80;;;;;;5070139;28;20487;-66
2021/11/07 09:55:19;;;;;;;1.97;1.10;;;28.90;16.10;;;;;;5070873;28;20497;-67
2021/11/07 09:57:49;;;;;;;2.60;1.57;;;29.50;14.90;;;;;;5069901;28;20825;-67
2021/11/07 10:00:21;;;;;;;3.33;1.50;;;29.70;14.30;;;;;;5069239;28;20523;-67
2021/11/07 10:02:49;;;;;;;4.00;2.40;;;29.50;13.70;;;;;;5069501;28;20487;-66
2021/11/07 10:05:18;;;;;;;3.80;2.57;;;28.80;14.90;;;;;;5072266;28;20444;-67
2021/11/07 10:07:57;;;;;;;4.17;1.70;;;29.00;14.10;;;;;;5073227;28;20790;-67
2021/11/07 10:10:29;;;;;;;3.13;2.00;;;28.70;13.90;;;;;;5070546;28;20446;-67
2021/11/07 10:12:58;;;;;;;2.63;1.60;;;28.80;14.70;;;;;;5073538;28;20489;-67
2021/11/07 10:15:29;;;;;;;2.53;1.20;;;29.30;14.10;;;;;;5068901;28;20841;-67
2021/11/07 10:18:01;;;;;;;2.67;1.47;;;29.40;14.50;;;;;;5073992;28;20521;-67
2021/11/07 10:20:33;;;;;;;2.00;1.10;;;29.60;13.80;;;;;;5072700;28;20432;-67
2021/11/07 10:23:07;;;;;;;2.23;1.20;;;29.80;14.40;;;;;;5069755;28;20816;-66
2021/11/07 10:25:39;;;;;;;3.07;0.80;;;30.10;14.10;;;;;;5073149;28;20490;-67
2021/11/07 10:28:25;;;;;;;2.03;1.20;;;29.70;12.90;;;;;;5069014;28;20800;-67
2021/11/07 10:31:11;;;;;;;4.63;1.33;;;28.20;14.60;;;;;;5072304;28;20432;-67
2021/11/07 10:33:59;;;;;;;2.27;0.90;;;27.40;14.50;;;;;;5072597;28;20436;-67
2021/11/07 10:39:29;;;;;;;2.20;0.93;;;26.20;14.70;;;;;;5073020;28;20489;-67
2021/11/07 10:45:08;;;;;;;2.83;1.90;;;25.90;16.50;;;;;;5072771;28;20417;-67
2021/11/07 10:53:25;;;;;;;1.70;0.80;;;27.00;15.30;;;;;;5065569;28;20447;-68
2021/11/07 10:55:56;;;;;;;2.00;0.90;;;25.90;15.30;;;;;;5071440;28;20476;-68
2021/11/07 10:58:28;;;;;;;2.07;1.00;;;24.70;15.80;;;;;;5071965;28;20440;-68
2021/11/07 11:00:57;;;;;;;2.50;1.00;;;24.00;16.20;;;;;;5067978;28;20440;-68
2021/11/07 11:03:25;;;;;;;2.40;1.00;;;24.40;17.00;;;;;;5071871;28;20495;-69
2021/11/07 11:05:58;;;;;;;2.47;1.17;;;25.30;15.50;;;;;;5071915;28;20804;-67
2021/11/07 11:08:33;;;;;;;2.13;1.10;;;24.80;15.70;;;;;;5073082;28;20517;-67
2021/11/07 11:11:08;;;;;;;3.03;1.10;;;23.70;15.60;;;;;;5072990;28;20436;-67
2021/11/07 11:13:43;;;;;;;2.47;1.10;;;22.30;17.00;;;;;;5072390;28;20923;-67
2021/11/07 11:16:31;;;;;;;2.07;0.90;;;21.30;17.60;;;;;;5075305;28;20446;-67
2021/11/07 11:19:36;;;;;;;2.10;1.10;;;21.20;19.10;;;;;;5073066;28;20597;-67
2021/11/07 11:22:20;;;;;;;2.30;1.23;;;22.00;18.90;;;;;;5072736;28;20440;-67
2021/11/07 11:31:13;;;;;;;2.77;1.20;;;29.20;13.10;;;;;;5009696;28;20435;-71
2021/11/07 11:33:47;;;;;;;1.80;0.80;;;31.80;12.60;;;;;;5066215;28;20799;-68
2021/11/07 11:36:25;;;;;;;2.10;0.97;;;33.40;10.00;;;;;;5070158;28;20444;-68
2021/11/07 11:38:57;;;;;;;1.87;1.00;;;34.30;10.00;;;;;;5070538;28;20467;-68
2021/11/07 11:41:30;;;;;;;1.80;0.80;;;34.60;9.70;;;;;;5070779;28;20441;-68
2021/11/07 11:44:00;;;;;;;3.63;0.80;;;34.20;9.90;;;;;;5071063;28;20571;-68
2021/11/07 11:46:38;;;;;;;2.27;1.30;;;34.70;10.40;;;;;;5068980;28;20838;-67
2021/11/07 11:52:33;;;;;;;2.20;1.30;;;36.70;9.30;;;;;;5037030;28;20440;-67
2021/11/07 11:55:11;;;;;;;2.40;1.20;;;36.00;8.50;;;;;;5070018;28;20448;-67
2021/11/07 11:57:56;;;;;;;1.70;0.80;;;34.60;9.40;;;;;;5070463;28;20523;-67
2021/11/07 12:00:46;;;;;;;2.00;1.00;;;34.60;10.20;;;;;;5070401;28;20835;-68
2021/11/07 12:03:44;;;;;;;2.20;1.00;;;35.70;9.30;;;;;;5070635;28;20499;-67
2021/11/07 12:06:34;;;;;;;2.37;0.90;;;36.80;8.80;;;;;;5069511;28;20502;-67
2021/11/07 12:09:31;;;;;;;2.10;0.90;;;37.10;8.50;;;;;;5068319;28;20429;-68
2021/11/07 12:12:04;;;;;;;1.70;0.70;;;37.10;8.40;;;;;;5069772;28;20895;-67
2021/11/07 12:14:58;;;;;;;1.77;0.90;;;37.10;8.10;;;;;;5069917;28;20456;-68
2021/11/07 12:17:37;;;;;;;2.70;0.90;;;37.30;8.10;;;;;;5064722;28;20450;-69
2021/11/07 12:20:24;;;;;;;2.10;1.10;;;37.70;7.80;;;;;;5069049;28;20505;-67
2021/11/07 12:23:23;;;;;;;2.40;1.30;;;37.80;7.70;;;;;;5068623;28;20445;-68
2021/11/07 12:25:55;;;;;;;3.73;1.40;;;38.00;7.50;;;;;;5064671;28;20436;-68
2021/11/07 12:28:48;;;;;;;1.93;1.20;;;38.40;7.20;;;;;;5070403;28;20523;-68
2021/11/07 12:31:17;;;;;;;1.80;0.90;;;38.50;6.80;;;;;;5069620;28;20445;-68
2021/11/07 12:33:55;;;;;;;1.97;0.97;;;38.20;7.00;;;;;;5070354;28;20497;-67
2021/11/07 12:36:34;;;;;;;1.80;0.90;;;38.20;7.00;;;;;;5068815;28;20528;-67
2021/11/07 12:42:11;;;;;;;1.90;0.80;;;37.20;6.70;;;;;;5032060;28;20751;-68
2021/11/07 12:44:39;;;;;;;2.07;0.90;;;36.60;7.20;;;;;;5069776;28;20931;-68
2021/11/07 12:47:09;;;;;;;2.00;1.00;;;36.30;7.50;;;;;;5069801;28;20428;-67
2021/11/07 12:49:40;;;;;;;3.30;1.10;;;36.00;7.40;;;;;;5068789;28;20575;-67
2021/11/07 12:52:16;;;;;;;2.20;0.87;;;35.80;7.70;;;;;;5069456;28;20451;-68
2021/11/07 12:54:45;;;;;;;1.70;0.87;;;35.40;7.50;;;;;;5066928;28;20494;-68
2021/11/07 12:57:14;;;;;;;2.03;1.00;;;35.00;7.90;;;;;;5068027;28;20440;-67
2021/11/07 12:59:46;;;;;;;2.30;1.00;;;34.50;8.20;;;;;;5069107;28;20539;-67
2021/11/07 13:02:22;;;;;;;2.20;1.07;;;33.90;8.00;;;;;;5069336;28;20452;-68
2021/11/07 13:04:59;;;;;;;1.53;0.60;;;32.90;8.80;;;;;;5069832;28;20440;-68
2021/11/07 13:07:34;;;;;;;2.37;1.10;;;32.10;9.50;;;;;;5068196;28;20459;-70
2021/11/07 13:10:12;;;;;;;4.13;0.93;;;31.30;9.90;;;;;;5069591;28;20869;-67
2021/11/07 13:12:44;;;;;;;2.50;1.13;;;29.80;9.90;;;;;;5069539;28;20473;-66
2021/11/07 13:27:03;;;;;;;2.73;1.07;;;25.30;12.30;;;;;;5069103;28;20440;-67
2021/11/07 13:29:51;;;;;;;3.67;0.80;;;24.60;13.50;;;;;;5068667;28;20821;-66
2021/11/07 13:32:32;;;;;;;1.70;0.70;;;24.00;14.20;;;;;;5068104;28;20436;-66
2021/11/07 13:35:06;;;;;;;2.13;0.60;;;23.30;15.00;;;;;;5067012;28;20445;-66
2021/11/07 13:37:47;;;;;;;1.77;0.80;;;22.60;14.70;;;;;;5069441;28;20445;-66
2021/11/07 13:40:21;;;;;;;1.53;0.60;;;22.00;15.60;;;;;;5069714;28;20471;-67
2021/11/07 13:42:51;;;;;;;1.60;0.60;;;21.50;15.80;;;;;;5068635;28;20454;-68
2021/11/07 13:45:27;;;;;;;1.80;0.73;;;21.00;15.60;;;;;;5069276;28;20432;-66
2021/11/07 13:47:57;;;;;;;2.80;1.50;;;20.70;16.00;;;;;;5067643;28;20468;-67
2021/11/07 13:50:35;;;;;;;2.13;1.03;;;20.30;16.20;;;;;;5068522;28;20477;-66
2021/11/07 13:53:07;;;;;;;1.80;0.83;;;20.00;16.90;;;;;;5067738;28;20515;-66
2021/11/07 13:55:37;;;;;;;1.93;1.00;;;19.70;16.80;;;;;;5068549;28;20476;-66
2021/11/07 13:58:15;;;;;;;2.10;1.17;;;19.40;17.10;;;;;;5069414;28;20811;-65
2021/11/07 14:00:44;;;;;;;2.40;0.80;;;19.10;17.70;;;;;;5069203;28;20444;-66
2021/11/07 14:03:18;;;;;;;1.80;1.00;;;18.90;18.00;;;;;;5068752;28;20452;-66
2021/11/07 14:05:54;;;;;;;1.83;0.70;;;18.70;18.30;;;;;;5069127;28;20455;-66
2021/11/07 14:08:24;;;;;;;3.40;0.90;;;18.40;18.10;;;;;;5068471;28;20478;-66
2021/11/07 14:10:54;;;;;;;2.43;1.20;;;18.20;18.40;;;;;;5068442;28;20848;-65
2021/11/07 14:13:24;;;;;;;1.90;0.90;;;17.90;18.70;;;;;;5068759;28;20483;-65
2021/11/07 14:15:57;;;;;;;2.00;0.90;;;17.70;18.60;;;;;;5068631;28;20476;-65
2021/11/07 14:18:28;;;;;;;1.80;0.90;;;17.50;18.40;;;;;;5069415;28;20942;-65
2021/11/07 14:20:58;;;;;;;1.87;0.80;;;17.20;18.60;;;;;;5070670;28;20448;-65
2021/11/07 14:23:30;;;;;;;1.50;0.63;;;17.00;18.70;;;;;;5070675;28;20539;-65
2021/11/07 14:26:07;;;;;;;1.83;0.70;;;16.90;19.30;;;;;;5070211;28;20957;-67
2021/11/07 14:29:00;;;;;;;1.50;0.60;;;16.70;19.10;;;;;;5068990;28;20818;-66
2021/11/07 14:31:32;;;;;;;2.10;0.60;;;16.60;19.10;;;;;;5069502;28;20444;-67